Time;durP1;ratioP1;P1;durP2;ratioP2;P2;SDS_P1;SDS_P2;PMS_P1;PMS_P2;Temp;Humidity;BMP_temperature;BMP_pressure;BME280_temperature;BME280_humidity;BME280_pressure;Samples;Min_cycle;Max_cycle;Signal;HPM_P1;HPM_P2
2021/08/29 00:00:13;;;;;;;25.83;8.00;;;;;;;13.93;65.47;99883.19;5134000;27;20492;-74
2021/08/29 00:02:39;;;;;;;25.55;8.95;;;;;;;13.98;65.44;99891.63;5133951;27;20049;-74
2021/08/29 00:05:06;;;;;;;29.15;8.73;;;;;;;14.00;64.82;99887.00;5134172;27;20043;-74
2021/08/29 00:07:32;;;;;;;28.73;8.13;;;;;;;14.06;64.93;99890.97;5133634;27;20491;-74
2021/08/29 00:09:58;;;;;;;30.33;9.05;;;;;;;14.09;64.92;99888.00;5133971;27;20043;-78
2021/08/29 00:12:26;;;;;;;27.27;8.82;;;;;;;14.14;64.77;99898.25;5133452;27;20049;-72
2021/08/29 00:14:51;;;;;;;23.88;8.95;;;;;;;14.15;64.82;99891.97;5133720;27;20125;-73
2021/08/29 00:17:17;;;;;;;24.80;9.55;;;;;;;14.17;64.58;99898.00;5133508;27;20528;-71
2021/08/29 00:19:43;;;;;;;32.28;9.68;;;;;;;14.17;64.52;99882.03;5132413;27;20422;-73
2021/08/29 00:22:09;;;;;;;33.22;8.90;;;;;;;14.15;64.52;99881.31;5133359;27;20042;-74
2021/08/29 00:24:37;;;;;;;20.33;8.07;;;;;;;14.18;64.48;99863.28;5133575;27;20499;-71
2021/08/29 00:27:04;;;;;;;26.60;9.70;;;;;;;14.20;63.97;99871.09;5133408;27;20035;-72
2021/08/29 00:29:30;;;;;;;26.20;8.65;;;;;;;14.19;64.26;99874.75;5131726;27;20422;-75
2021/08/29 00:31:56;;;;;;;21.10;8.40;;;;;;;14.21;64.37;99862.16;5133404;27;20046;-76
2021/08/29 00:34:22;;;;;;;25.98;8.90;;;;;;;14.23;64.31;99871.69;5133084;27;20043;-75
2021/08/29 00:36:48;;;;;;;21.48;8.43;;;;;;;14.19;64.35;99864.09;5133500;27;20495;-73
2021/08/29 00:39:14;;;;;;;32.55;9.95;;;;;;;14.23;64.23;99871.69;5114082;27;20071;-73
2021/08/29 00:41:42;;;;;;;23.95;9.15;;;;;;;14.22;64.27;99862.00;5111360;28;20466;-75
2021/08/29 00:44:11;;;;;;;20.70;9.55;;;;;;;14.20;64.15;99868.44;5111392;28;20080;-74
2021/08/29 00:46:37;;;;;;;33.78;10.10;;;;;;;14.22;63.79;99861.19;5111034;28;20039;-73
2021/08/29 00:49:03;;;;;;;27.75;9.68;;;;;;;14.19;63.58;99848.13;5112770;28;20504;-74
2021/08/29 00:51:30;;;;;;;28.73;9.77;;;;;;;14.23;63.39;99868.16;5076996;28;20133;-73
2021/08/29 00:53:56;;;;;;;27.40;9.40;;;;;;;14.23;63.67;99857.50;5094072;28;20354;-73
2021/08/29 00:56:24;;;;;;;24.70;10.23;;;;;;;14.26;63.69;99859.91;5110634;28;20044;-73
2021/08/29 00:58:55;;;;;;;24.23;10.05;;;;;;;14.26;63.46;99867.06;5110979;28;20067;-76
2021/08/29 01:01:45;;;;;;;23.40;10.38;;;;;;;14.24;63.67;99859.19;5094212;28;20040;-77
2021/08/29 01:04:23;;;;;;;15.68;8.48;;;;;;;14.31;62.92;99855.00;5094428;28;20138;-73
2021/08/29 01:07:09;;;;;;;21.08;8.93;;;;;;;14.31;63.42;99846.22;5094273;28;20049;-72
2021/08/29 01:09:47;;;;;;;23.58;9.30;;;;;;;14.27;63.15;99853.63;5093605;28;20050;-72
2021/08/29 01:12:13;;;;;;;;;;;;;;;14.29;63.27;99856.97;5094218;28;20483;-74
2021/08/29 01:14:51;;;;;;;24.85;9.35;;;;;;;14.24;63.30;99843.25;5095436;28;20303;-75
2021/08/29 01:17:20;;;;;;;27.95;10.20;;;;;;;14.26;63.56;99846.63;5110482;28;20054;-71
2021/08/29 01:20:00;;;;;;;24.50;10.30;;;;;;;14.23;63.27;99842.41;5094210;28;20412;-71
2021/08/29 01:22:26;;;;;;;21.17;11.07;;;;;;;14.24;63.41;99843.25;5093549;28;20051;-72
2021/08/29 01:24:53;;;;;;;27.75;10.82;;;;;;;14.23;63.39;99847.72;5110427;28;20051;-76
2021/08/29 01:27:54;;;;;;;26.13;10.98;;;;;;;14.19;63.49;99840.16;5093325;28;20556;-73
2021/08/29 01:30:20;;;;;;;28.17;10.43;;;;;;;14.18;63.45;99839.31;5106409;28;20389;-71
2021/08/29 01:32:47;;;;;;;32.97;11.02;;;;;;;14.18;63.65;99838.47;5092896;28;20050;-71
2021/08/29 01:35:14;;;;;;;33.28;11.27;;;;;;;14.16;63.75;99835.13;5110488;28;20437;-71
2021/08/29 01:37:53;;;;;;;26.83;10.55;;;;;;;14.15;63.73;99849.41;5102850;28;20076;-71
2021/08/29 01:40:20;;;;;;;26.73;11.48;;;;;;;14.19;63.43;99840.16;5130723;28;20062;-70
2021/08/29 01:42:46;;;;;;;30.33;11.10;;;;;;;14.19;63.60;99846.34;5130994;28;20054;-70
2021/08/29 01:45:12;;;;;;;30.73;13.70;;;;;;;14.17;63.72;99842.13;5130956;28;20043;-71
2021/08/29 01:47:42;;;;;;;26.48;11.80;;;;;;;14.15;63.74;99844.06;5114264;28;20134;-70
2021/08/29 01:50:09;;;;;;;23.45;11.30;;;;;;;14.15;63.75;99838.75;5131019;28;20133;-71
2021/08/29 01:52:38;;;;;;;35.40;11.98;;;;;;;14.14;63.69;99839.72;5130638;28;20453;-71
2021/08/29 01:55:32;;;;;;;32.75;12.85;;;;;;;14.13;63.70;99846.03;5100433;28;20043;-72
2021/08/29 01:58:06;;;;;;;27.77;12.15;;;;;;;14.12;63.80;99847.00;5130367;28;20066;-70
2021/08/29 02:00:57;;;;;;;35.33;12.85;;;;;;;14.13;63.94;99846.03;5126437;28;20564;-71
2021/08/29 02:03:25;;;;;;;;;;;;;;;14.16;63.63;99849.25;5109766;28;20092;-71
2021/08/29 02:06:37;;;;;;;36.55;12.98;;;;;;;14.16;63.55;99856.41;5034199;28;19917;-71
2021/08/29 02:09:06;;;;;;;32.00;13.40;;;;;;;14.17;63.78;99837.63;5015383;28;20052;-72
2021/08/29 02:11:40;;;;;;;27.95;12.38;;;;;;;14.14;63.72;99839.72;5015534;28;20617;-72
2021/08/29 02:14:09;;;;;;;31.92;13.38;;;;;;;14.13;63.91;99840.69;5015282;28;20106;-71
2021/08/29 02:16:41;;;;;;;35.38;13.07;;;;;;;14.14;63.94;99843.22;5015030;28;20370;-74
2021/08/29 02:19:07;;;;;;;36.15;13.60;;;;;;;14.15;63.83;99849.41;5031710;28;20143;-76
2021/08/29 02:21:34;;;;;;;32.85;13.65;;;;;;;14.13;63.86;99841.56;5014719;28;20490;-72
2021/08/29 02:24:03;;;;;;;33.10;13.05;;;;;;;14.14;63.91;99840.56;5015236;28;20786;-72
2021/08/29 02:26:30;;;;;;;35.72;15.27;;;;;;;14.09;63.98;99829.50;5047659;28;20049;-71
2021/08/29 02:29:09;;;;;;;39.55;14.15;;;;;;;14.05;64.03;99831.59;5030950;28;20137;-70
2021/08/29 02:31:36;;;;;;;41.58;14.57;;;;;;;13.97;64.53;99831.44;5031341;28;20529;-71
2021/08/29 02:34:02;;;;;;;42.42;14.73;;;;;;;13.92;64.40;99844.31;5031440;28;20603;-71
2021/08/29 02:36:29;;;;;;;34.78;14.57;;;;;;;13.89;64.86;99833.94;5031222;28;20056;-69
2021/08/29 02:38:55;;;;;;;39.67;14.18;;;;;;;13.87;64.81;99839.41;5014886;28;20045;-72
2021/08/29 02:41:23;;;;;;;32.70;14.40;;;;;;;13.81;64.92;99833.78;5031223;28;20055;-71
2021/08/29 02:43:51;;;;;;;31.33;13.95;;;;;;;13.79;65.26;99844.53;5107818;28;20281;-71
2021/08/29 02:46:17;;;;;;;41.70;14.85;;;;;;;13.73;65.34;99837.97;5096954;28;20439;-70
2021/08/29 02:48:44;;;;;;;41.63;14.93;;;;;;;13.69;65.43;99839.19;5113513;28;20048;-75
2021/08/29 02:51:13;;;;;;;44.67;15.05;;;;;;;13.68;65.64;99847.31;5097104;28;20044;-70
2021/08/29 02:53:44;;;;;;;42.50;15.20;;;;;;;13.62;65.92;99854.00;5113156;28;20065;-71
2021/08/29 02:56:11;;;;;;;41.35;15.63;;;;;;;13.62;65.97;99846.03;5096295;28;20791;-72
2021/08/29 02:58:38;;;;;;;42.47;15.85;;;;;;;13.61;66.17;99844.34;5096366;28;20043;-72
2021/08/29 03:01:15;;;;;;;39.13;15.02;;;;;;;13.59;66.06;99847.16;5097882;28;20127;-75
2021/08/29 03:04:10;;;;;;;35.97;14.23;;;;;;;13.62;66.01;99851.34;5113150;28;20040;-76
2021/08/29 03:06:38;;;;;;;40.78;16.17;;;;;;;13.66;65.92;99844.78;5112964;28;20099;-76
2021/08/29 03:09:06;;;;;;;40.22;14.13;;;;;;;13.71;65.82;99845.22;5113252;28;20447;-71
2021/08/29 03:11:37;;;;;;;47.50;15.88;;;;;;;13.79;65.67;99854.34;5113088;28;20078;-70
2021/08/29 03:14:04;;;;;;;37.50;14.88;;;;;;;13.87;65.40;99851.88;5114055;28;20047;-72
2021/08/29 03:16:31;;;;;;;33.83;14.30;;;;;;;13.94;65.25;99836.19;5095736;28;20671;-71
2021/08/29 03:19:09;;;;;;;;;;;;;;;13.93;65.33;99848.63;5113458;28;20048;-72
2021/08/29 03:21:55;;;;;;;33.63;14.63;;;;;;;13.93;65.51;99853.94;5112487;28;19915;-71
2021/08/29 03:24:22;;;;;;;38.97;14.43;;;;;;;13.92;65.36;99868.25;5112356;28;20573;-73
2021/08/29 03:26:49;;;;;;;32.72;13.98;;;;;;;13.94;65.28;99868.09;5112726;28;20341;-70
2021/08/29 03:29:22;;;;;;;34.08;14.63;;;;;;;13.98;65.13;99864.19;5112322;28;20142;-72
2021/08/29 03:31:48;;;;;;;41.72;14.77;;;;;;;13.99;65.10;99868.53;5112607;28;20172;-70
2021/08/29 03:34:17;;;;;;;29.42;13.95;;;;;;;14.03;64.77;99873.44;5112667;28;20040;-72
2021/08/29 03:36:44;;;;;;;38.97;15.07;;;;;;;14.04;65.00;99869.81;5112447;28;20070;-73
2021/08/29 03:39:11;;;;;;;28.60;14.52;;;;;;;13.98;65.23;99859.72;5130725;27;20047;-72
2021/08/29 03:41:40;;;;;;;29.17;13.55;;;;;;;14.00;65.11;99863.06;5132549;27;20046;-71
2021/08/29 03:44:09;;;;;;;30.58;14.25;;;;;;;13.97;64.89;99860.69;5132654;27;20051;-75
2021/08/29 03:46:36;;;;;;;31.17;14.25;;;;;;;13.94;65.18;99866.28;5132748;27;20043;-71
2021/08/29 03:49:09;;;;;;;25.90;13.10;;;;;;;14.01;65.09;99858.63;5133019;27;20527;-75
2021/08/29 03:51:37;;;;;;;29.80;14.10;;;;;;;14.05;65.02;99862.66;5132636;27;20039;-75
2021/08/29 03:54:05;;;;;;;24.98;14.18;;;;;;;14.12;64.34;99854.97;5132657;27;20126;-74
2021/08/29 03:56:31;;;;;;;27.17;13.05;;;;;;;14.19;64.31;99856.13;5132097;27;20076;-73
2021/08/29 03:58:57;;;;;;;28.50;13.43;;;;;;;14.28;64.14;99859.78;5132479;27;20613;-74
2021/08/29 04:01:23;;;;;;;30.63;13.68;;;;;;;14.38;64.03;99861.47;5131923;27;20644;-73
2021/08/29 04:03:49;;;;;;;30.25;14.65;;;;;;;14.66;63.08;99856.31;5132109;27;20043;-71
2021/08/29 04:06:26;;;;;;;30.40;13.80;;;;;;;15.30;61.92;99855.81;5133198;27;20043;-74
2021/08/29 04:08:54;;;;;;;29.45;13.43;;;;;;;15.87;59.73;99847.75;5115417;27;20046;-74
2021/08/29 04:11:24;;;;;;;26.88;13.88;;;;;;;15.76;60.01;99850.59;5132385;27;20045;-75
2021/08/29 04:13:53;;;;;;;30.15;14.00;;;;;;;15.51;60.69;99853.81;5132336;27;20035;-73
2021/08/29 04:16:25;;;;;;;28.77;14.20;;;;;;;15.32;61.10;99841.38;5132411;27;20047;-74
2021/08/29 04:18:59;;;;;;;28.33;14.35;;;;;;;16.20;59.09;99842.81;5133075;27;20045;-71
2021/08/29 04:21:26;;;;;;;27.98;15.18;;;;;;;16.61;57.99;99845.00;5132397;27;20074;-73
2021/08/29 04:23:53;;;;;;;27.92;13.63;;;;;;;16.75;56.75;99841.81;5133315;27;20457;-73
2021/08/29 04:26:22;;;;;;;33.83;14.43;;;;;;;16.89;56.95;99850.28;5134395;27;20054;-77
2021/08/29 04:28:49;;;;;;;24.80;14.45;;;;;;;16.41;57.44;99850.53;5133044;27;20051;-76
2021/08/29 04:31:25;;;;;;;29.02;14.10;;;;;;;16.01;58.68;99849.09;5133311;27;20047;-78
2021/08/29 04:33:56;;;;;;;28.00;14.40;;;;;;;15.78;59.34;99840.63;5115760;27;20049;-75
2021/08/29 04:36:45;;;;;;;29.30;14.77;;;;;;;16.06;58.98;99836.13;5120438;27;20051;-76
2021/08/29 04:39:43;;;;;;;25.80;14.20;;;;;;;17.90;54.96;99838.16;5068813;28;20473;-73
2021/08/29 04:42:09;;;;;;;24.48;13.93;;;;;;;19.01;51.21;99836.19;5052250;28;20040;-71
2021/08/29 04:44:35;;;;;;;27.08;14.52;;;;;;;19.78;49.53;99838.31;5052291;28;20131;-73
2021/08/29 04:47:02;;;;;;;25.77;14.30;;;;;;;20.50;47.24;99839.94;5052316;28;20095;-73
2021/08/29 04:49:28;;;;;;;27.05;14.60;;;;;;;21.17;45.99;99838.41;5052143;28;20060;-72
2021/08/29 04:51:54;;;;;;;24.63;15.57;;;;;;;21.36;44.93;99843.41;5052415;28;20531;-71
2021/08/29 04:54:21;;;;;;;26.02;14.32;;;;;;;21.47;44.62;99851.00;5052132;28;20052;-74
2021/08/29 04:56:47;;;;;;;27.45;14.77;;;;;;;22.43;42.75;99851.00;5052056;28;20052;-78
2021/08/29 04:59:16;;;;;;;26.95;15.02;;;;;;;22.69;42.71;99855.00;5052495;28;20113;-73
2021/08/29 05:01:42;;;;;;;28.55;14.38;;;;;;;22.89;41.71;99854.31;5051559;28;20059;-72
2021/08/29 05:04:08;;;;;;;30.40;15.35;;;;;;;21.71;43.87;99859.84;5052206;28;20439;-76
2021/08/29 05:06:34;;;;;;;33.22;16.40;;;;;;;21.49;44.46;99839.03;5051215;28;20055;-76
2021/08/29 05:09:01;;;;;;;30.45;15.77;;;;;;;21.81;43.70;99838.88;5069059;28;20044;-80
2021/08/29 05:11:27;;;;;;;28.85;15.60;;;;;;;21.29;44.47;99835.25;5052755;28;20037;-74
2021/08/29 05:13:52;;;;;;;24.40;14.80;;;;;;;22.30;42.74;99850.84;5076838;28;20105;-77
2021/08/29 05:16:18;;;;;;;24.23;14.90;;;;;;;22.78;41.30;99843.03;5123141;27;20066;-71
2021/08/29 05:18:45;;;;;;;30.63;16.77;;;;;;;23.47;40.49;99834.44;5129495;27;20093;-76
2021/08/29 05:21:20;;;;;;;25.30;15.18;;;;;;;24.06;39.01;99828.50;5129141;27;20560;-76
2021/08/29 05:24:05;;;;;;;28.83;15.93;;;;;;;23.63;39.74;99838.66;5131220;27;20411;-84
2021/08/29 05:26:51;;;;;;;25.60;15.00;;;;;;;24.30;38.52;99831.66;5100632;27;20502;-82
2021/08/29 05:29:18;;;;;;;27.48;15.73;;;;;;;24.97;37.12;99845.28;5055191;28;20051;-78
2021/08/29 05:31:46;;;;;;;25.75;14.95;;;;;;;25.30;36.24;99843.59;5088467;28;20131;-82
2021/08/29 05:34:17;;;;;;;29.20;16.02;;;;;;;25.91;35.70;99839.66;5052045;28;20048;-80
2021/08/29 05:36:43;;;;;;;24.90;14.73;;;;;;;26.31;34.45;99844.91;5052381;28;20436;-80
2021/08/29 05:39:12;;;;;;;27.17;15.77;;;;;;;26.08;34.61;99850.88;5044589;28;20089;-80
2021/08/29 05:41:39;;;;;;;24.13;15.52;;;;;;;26.03;35.35;99847.09;5078928;28;20028;-89
2021/08/29 05:44:31;;;;;;;23.58;14.38;;;;;;;26.27;34.60;99837.41;5049491;28;20051;-83
2021/08/29 05:46:58;;;;;;;25.88;15.48;;;;;;;26.84;33.93;99839.34;5057456;28;20110;-81
2021/08/29 05:49:29;;;;;;;28.33;16.52;;;;;;;27.50;32.75;99840.59;5042997;28;20099;-81
2021/08/29 05:51:56;;;;;;;28.17;14.98;;;;;;;27.49;32.49;99833.53;5074867;28;20048;-84
2021/08/29 05:54:31;;;;;;;27.25;14.38;;;;;;;27.90;32.42;99833.88;5062831;28;20060;-82
2021/08/29 05:57:04;;;;;;;25.90;15.52;;;;;;;28.36;31.40;99847.91;5053751;28;20044;-81
2021/08/29 05:59:52;;;;;;;27.48;15.70;;;;;;;28.71;30.62;99828.16;5035648;28;20036;-84
2021/08/29 06:02:18;;;;;;;25.97;15.63;;;;;;;28.95;30.37;99828.16;5014625;28;20056;-85
2021/08/29 06:04:45;;;;;;;28.95;15.43;;;;;;;28.95;30.28;99825.44;5055184;28;20278;-82
2021/08/29 06:07:20;;;;;;;27.60;15.77;;;;;;;28.76;30.09;99822.00;5032022;28;20520;-81
2021/08/29 06:09:56;;;;;;;32.30;16.15;;;;;;;29.52;29.43;99819.38;5063893;28;20044;-85
2021/08/29 06:12:23;;;;;;;38.08;16.42;;;;;;;30.47;27.59;99821.78;5044320;28;20055;-81
2021/08/29 06:14:48;;;;;;;32.58;16.45;;;;;;;29.47;28.70;99820.13;5039529;28;20044;-82
2021/08/29 06:17:16;;;;;;;25.47;15.63;;;;;;;29.03;29.75;99822.38;5031553;28;20064;-80
2021/08/29 06:19:52;;;;;;;26.67;15.52;;;;;;;29.54;29.16;99836.34;5061833;28;20505;-83
2021/08/29 06:22:19;;;;;;;31.27;15.82;;;;;;;29.73;29.06;99828.00;5074970;28;20547;-85
2021/08/29 06:25:06;;;;;;;27.45;15.02;;;;;;;30.09;28.53;99824.09;5041816;28;20058;-82
2021/08/29 06:27:51;;;;;;;30.87;16.30;;;;;;;30.30;28.21;99836.22;5092293;28;20053;-82
2021/08/29 06:30:36;;;;;;;25.73;15.20;;;;;;;30.97;26.86;99826.44;5067724;28;20062;-85
2021/08/29 06:33:38;;;;;;;24.63;14.50;;;;;;;31.11;26.75;99832.41;5061739;28;20036;-82
2021/08/29 06:36:31;;;;;;;30.33;14.77;;;;;;;31.82;26.10;99819.13;5074818;28;20047;-85
2021/08/29 06:39:01;;;;;;;26.65;15.45;;;;;;;32.09;25.61;99819.97;5064530;28;20049;-83
2021/08/29 06:41:31;;;;;;;28.83;15.18;;;;;;;31.07;26.78;99830.44;5028308;28;20048;-83
2021/08/29 06:44:04;;;;;;;31.35;15.57;;;;;;;31.46;26.20;99833.97;5018388;28;20067;-83
2021/08/29 06:47:03;;;;;;;25.23;15.30;;;;;;;32.06;25.61;99823.22;5037393;28;20060;-81
2021/08/29 06:49:48;;;;;;;30.73;14.97;;;;;;;30.96;26.66;99829.41;5028622;28;20061;-81
2021/08/29 06:52:37;;;;;;;34.90;15.93;;;;;;;30.23;28.12;99818.34;5013161;28;20060;-81
2021/08/29 06:55:24;;;;;;;28.40;15.85;;;;;;;30.73;28.01;99809.41;5028216;28;20057;-85
2021/08/29 06:58:30;;;;;;;26.83;15.65;;;;;;;29.27;29.14;99811.47;5001454;28;20565;-80
2021/08/29 07:00:56;;;;;;;25.92;15.23;;;;;;;28.34;30.47;99806.53;4988164;28;20045;-76
2021/08/29 07:03:22;;;;;;;32.63;15.77;;;;;;;28.44;31.06;99817.66;4983922;28;20447;-81
2021/08/29 07:05:48;;;;;;;26.75;14.80;;;;;;;29.79;28.83;99816.94;5001222;28;20038;-78
2021/08/29 07:08:43;;;;;;;27.77;15.00;;;;;;;30.26;28.44;99812.41;4998743;28;20573;-77
2021/08/29 07:11:09;;;;;;;30.57;15.53;;;;;;;31.53;26.53;99800.16;4983614;28;20056;-78
2021/08/29 07:13:54;;;;;;;31.77;14.38;;;;;;;31.01;27.11;99810.38;4985649;28;20042;-79
2021/08/29 07:16:20;;;;;;;25.63;15.50;;;;;;;28.87;29.91;99807.56;4989055;28;20133;-78
2021/08/29 07:18:46;;;;;;;24.50;14.73;;;;;;;27.38;32.28;99815.25;4999175;28;20146;-78
2021/08/29 07:21:24;;;;;;;25.25;14.38;;;;;;;27.35;32.17;99815.69;4992372;28;20093;-78
2021/08/29 07:24:08;;;;;;;26.38;14.57;;;;;;;27.93;31.23;99809.78;4987588;28;20054;-77
2021/08/29 07:26:36;;;;;;;27.25;15.25;;;;;;;28.45;31.03;99805.72;4989893;28;20050;-78
2021/08/29 07:29:21;;;;;;;26.77;14.38;;;;;;;29.03;29.93;99803.31;5015531;28;20067;-77
2021/08/29 07:32:13;;;;;;;26.20;14.63;;;;;;;28.52;31.16;99808.34;5021209;28;20053;-81
2021/08/29 07:34:40;;;;;;;25.88;14.07;;;;;;;29.47;30.00;99808.38;4981869;28;20071;-76
2021/08/29 07:37:32;;;;;;;32.97;16.13;;;;;;;30.72;28.19;99817.81;5007321;28;20067;-78
2021/08/29 07:40:00;;;;;;;27.38;14.85;;;;;;;31.97;26.29;99811.09;5033379;28;20045;-79
2021/08/29 07:42:26;;;;;;;24.60;15.35;;;;;;;32.24;26.12;99810.31;5033842;28;20114;-77
2021/08/29 07:44:51;;;;;;;26.40;14.83;;;;;;;32.07;26.58;99811.19;5062008;28;20492;-76
2021/08/29 07:47:28;;;;;;;27.13;14.40;;;;;;;31.97;26.39;99810.28;5112506;28;20043;-77
2021/08/29 07:49:54;;;;;;;23.60;14.73;;;;;;;32.07;26.49;99805.72;5113675;28;20092;-79
2021/08/29 07:52:21;;;;;;;25.35;14.88;;;;;;;32.36;26.13;99791.81;5112231;28;20342;-78
2021/08/29 07:55:19;;;;;;;27.10;14.35;;;;;;;32.61;25.33;99795.81;5091950;27;20515;-77
2021/08/29 07:57:48;;;;;;;23.83;14.93;;;;;;;32.77;25.23;99795.97;5113252;28;20070;-77
2021/08/29 08:00:19;;;;;;;27.83;15.82;;;;;;;33.13;24.77;99786.06;5112163;28;20054;-82
2021/08/29 08:03:04;;;;;;;27.00;15.73;;;;;;;33.43;24.30;99786.50;5112291;28;20408;-78
2021/08/29 08:05:50;;;;;;;22.63;14.88;;;;;;;33.70;24.01;99781.66;5095872;28;20060;-74
2021/08/29 08:08:42;;;;;;;24.48;14.95;;;;;;;33.37;24.34;99782.91;5096335;28;20058;-78
2021/08/29 08:11:26;;;;;;;26.80;15.38;;;;;;;33.54;24.13;99782.72;5113554;28;20469;-79
2021/08/29 08:13:53;;;;;;;26.13;15.48;;;;;;;33.59;24.28;99779.97;5111579;28;20123;-78
2021/08/29 08:16:18;;;;;;;29.70;15.65;;;;;;;33.70;23.89;99765.19;5113960;28;20088;-81
2021/08/29 08:18:44;;;;;;;25.37;16.37;;;;;;;33.54;24.17;99755.28;5111973;28;20043;-84
2021/08/29 08:21:10;;;;;;;30.45;16.63;;;;;;;34.53;23.28;99764.53;5095128;28;20504;-77
2021/08/29 08:23:46;;;;;;;24.65;15.30;;;;;;;33.62;24.20;99763.00;5113121;28;20126;-76
2021/08/29 08:26:32;;;;;;;27.80;15.75;;;;;;;33.41;24.49;99755.78;5080581;28;20510;-77
2021/08/29 08:29:18;;;;;;;27.50;15.40;;;;;;;33.38;24.54;99752.47;5112011;28;20552;-82
2021/08/29 08:32:02;;;;;;;25.67;14.50;;;;;;;32.60;25.64;99747.63;5112289;28;20054;-79
2021/08/29 08:35:07;;;;;;;28.75;15.70;;;;;;;31.04;27.77;99749.78;5091502;28;20044;-80
2021/08/29 08:37:51;;;;;;;28.23;16.10;;;;;;;32.20;26.69;99743.47;5120618;27;20066;-77
2021/08/29 08:40:41;;;;;;;27.90;16.33;;;;;;;32.33;26.01;99748.50;5131890;27;20051;-81
2021/08/29 08:43:18;;;;;;;27.25;15.65;;;;;;;32.64;25.93;99737.78;5132687;27;20042;-79
2021/08/29 08:46:03;;;;;;;28.42;16.73;;;;;;;32.70;26.17;99753.16;5133937;27;20381;-76
2021/08/29 08:49:04;;;;;;;29.23;15.70;;;;;;;32.27;26.18;99752.28;5101457;27;20043;-83
2021/08/29 08:51:50;;;;;;;28.77;14.60;;;;;;;32.08;26.78;99751.81;5132242;27;20047;-81
2021/08/29 08:54:38;;;;;;;21.73;14.23;;;;;;;32.68;26.10;99754.53;5131420;27;20043;-77
2021/08/29 08:57:31;;;;;;;25.52;15.15;;;;;;;32.74;26.39;99743.34;5100218;27;20133;-75
2021/08/29 09:00:25;;;;;;;26.10;14.25;;;;;;;33.13;25.81;99753.16;5128941;27;20045;-80
2021/08/29 09:03:28;;;;;;;26.17;15.32;;;;;;;33.50;25.09;99755.00;5068936;28;20067;-83
2021/08/29 09:06:26;;;;;;;21.42;14.02;;;;;;;32.78;25.87;99751.06;5017746;28;20069;-77
2021/08/29 09:08:52;;;;;;;31.10;14.13;;;;;;;32.40;27.04;99754.59;5029087;28;20130;-81
2021/08/29 09:11:17;;;;;;;24.70;15.17;;;;;;;31.51;27.89;99747.66;5029008;28;20132;-79
2021/08/29 09:13:46;;;;;;;31.53;15.30;;;;;;;31.98;27.57;99736.13;5028661;28;20065;-77
2021/08/29 09:16:13;;;;;;;22.23;14.30;;;;;;;31.06;28.64;99742.13;5029189;28;20140;-78
2021/08/29 09:18:54;;;;;;;25.73;14.70;;;;;;;31.18;28.93;99743.94;5012088;28;20111;-77
2021/08/29 09:21:24;;;;;;;27.40;14.50;;;;;;;32.22;27.96;99735.84;5029070;28;20045;-77
2021/08/29 09:23:52;;;;;;;26.08;14.88;;;;;;;32.55;26.74;99733.88;5028371;28;20609;-77
2021/08/29 09:26:49;;;;;;;26.48;14.35;;;;;;;32.45;26.86;99745.59;5009181;28;20069;-78
2021/08/29 09:29:31;;;;;;;22.42;14.10;;;;;;;32.92;26.56;99744.00;5009749;28;20388;-79
2021/08/29 09:32:00;;;;;;;29.38;15.68;;;;;;;32.18;27.44;99754.66;4993822;28;20054;-78
2021/08/29 09:34:36;;;;;;;30.00;14.57;;;;;;;31.89;27.19;99771.34;4992982;28;20127;-77
2021/08/29 09:37:07;;;;;;;22.63;14.18;;;;;;;31.09;28.27;99751.75;4992413;28;20057;-76
2021/08/29 09:39:51;;;;;;;27.02;13.40;;;;;;;29.68;30.81;99766.00;5009044;28;20124;-76
2021/08/29 09:42:42;;;;;;;25.83;14.45;;;;;;;28.95;32.31;99773.69;5010498;28;20053;-82
2021/08/29 09:45:26;;;;;;;27.40;15.38;;;;;;;30.23;30.47;99766.50;5031853;28;20064;-81
2021/08/29 09:48:26;;;;;;;30.83;14.93;;;;;;;30.46;29.95;99773.72;4989308;28;20046;-79
2021/08/29 09:51:13;;;;;;;29.55;14.63;;;;;;;30.70;29.69;99777.13;4989504;28;20565;-77
2021/08/29 09:54:11;;;;;;;25.00;13.55;;;;;;;29.38;31.74;99775.22;4976942;28;20393;-77
2021/08/29 09:56:50;;;;;;;24.85;14.10;;;;;;;28.69;32.94;99786.75;4992702;28;20050;-77
2021/08/29 09:59:37;;;;;;;25.80;14.65;;;;;;;27.51;35.39;99796.06;4993422;28;20065;-78
2021/08/29 10:02:28;;;;;;;29.85;14.32;;;;;;;27.10;36.02;99787.53;5016543;28;20103;-79
2021/08/29 10:05:17;;;;;;;35.22;17.67;;;;;;;26.60;37.75;99777.50;5031765;28;20106;-78
2021/08/29 10:07:57;;;;;;;30.15;14.55;;;;;;;26.49;38.15;99764.66;5015052;28;20170;-77
2021/08/29 10:10:28;;;;;;;30.92;15.15;;;;;;;26.39;37.96;99761.63;5016117;28;20460;-80
2021/08/29 10:12:56;;;;;;;32.30;14.70;;;;;;;25.99;38.85;99766.25;5015496;28;20593;-78
2021/08/29 10:15:23;;;;;;;31.83;15.68;;;;;;;26.11;39.22;99762.88;5016095;28;20595;-77
2021/08/29 10:18:16;;;;;;;33.03;14.50;;;;;;;26.07;39.28;99767.88;4992935;28;20061;-77
2021/08/29 10:21:12;;;;;;;32.40;14.38;;;;;;;25.82;39.39;99770.47;4992589;28;20062;-78
2021/08/29 10:23:42;;;;;;;48.65;16.10;;;;;;;25.81;40.37;99763.44;4993322;28;20065;-79
2021/08/29 10:26:10;;;;;;;29.63;14.73;;;;;;;25.81;40.25;99761.53;4995918;28;20152;-78
2021/08/29 10:29:07;;;;;;;25.23;12.98;;;;;;;25.42;40.85;99759.84;5019505;28;20510;-78
2021/08/29 10:32:12;;;;;;;28.13;13.00;;;;;;;25.15;41.04;99760.72;5071570;28;20670;-75
2021/08/29 10:34:43;;;;;;;34.00;13.23;;;;;;;24.91;41.62;99766.81;5039292;28;20404;-78
2021/08/29 10:37:10;;;;;;;25.27;13.25;;;;;;;24.66;41.96;99771.00;5054991;28;20059;-80
2021/08/29 10:39:45;;;;;;;25.13;12.60;;;;;;;24.34;43.12;99753.69;5072248;28;20113;-82
2021/08/29 10:42:35;;;;;;;21.80;12.98;;;;;;;24.25;43.52;99755.78;5072112;28;20056;-78
2021/08/29 10:45:19;;;;;;;26.77;12.88;;;;;;;24.29;43.40;99759.72;5072025;28;20048;-77
2021/08/29 10:48:04;;;;;;;24.55;13.05;;;;;;;24.37;43.60;99756.81;5071678;28;20048;-83
2021/08/29 10:50:57;;;;;;;24.13;12.23;;;;;;;24.95;42.65;99747.25;5058331;28;20528;-78
2021/08/29 10:53:27;;;;;;;28.02;13.95;;;;;;;25.21;42.30;99756.34;5054520;28;20040;-76
2021/08/29 10:56:13;;;;;;;28.00;13.70;;;;;;;25.06;42.57;99767.41;5103176;28;20100;-79
2021/08/29 10:58:39;;;;;;;29.77;13.02;;;;;;;24.80;43.25;99769.13;5114954;28;20480;-79
2021/08/29 11:01:04;;;;;;;27.40;12.75;;;;;;;25.23;42.38;99759.66;5113612;28;20059;-77
2021/08/29 11:03:56;;;;;;;26.65;12.95;;;;;;;25.33;42.05;99751.94;5113393;28;20055;-79
2021/08/29 11:06:53;;;;;;;26.60;13.15;;;;;;;25.20;42.47;99774.44;5099841;28;20078;-81
2021/08/29 11:09:37;;;;;;;27.83;12.48;;;;;;;24.95;42.83;99760.75;5113463;28;20048;-77
2021/08/29 11:12:18;;;;;;;28.00;11.93;;;;;;;24.62;42.94;99767.00;5113865;28;20101;-84
2021/08/29 11:14:56;;;;;;;24.40;11.70;;;;;;;24.31;43.69;99775.72;5113276;28;20039;-78
2021/08/29 11:17:35;;;;;;;21.08;11.20;;;;;;;24.17;44.28;99775.69;5113904;28;20155;-78
2021/08/29 11:20:14;;;;;;;26.70;11.30;;;;;;;24.17;44.32;99769.47;5096179;28;20043;-77
2021/08/29 11:23:44;;;;;;;23.17;11.43;;;;;;;24.08;45.15;99781.53;5114113;28;20059;-77
2021/08/29 11:26:33;;;;;;;25.52;11.00;;;;;;;24.09;45.05;99770.50;5113305;28;20043;-79
2021/08/29 11:29:40;;;;;;;21.13;10.93;;;;;;;23.99;45.10;99779.00;5089950;28;20052;-80
2021/08/29 11:32:09;;;;;;;59.00;26.77;;;;;;;23.87;45.74;99777.88;5112653;28;20043;-77
2021/08/29 11:34:35;;;;;;;28.35;12.50;;;;;;;23.99;45.92;99778.16;5113168;28;20035;-80
2021/08/29 11:37:23;;;;;;;23.10;13.17;;;;;;;24.34;45.12;99770.75;5095727;27;20203;-79
2021/08/29 11:40:11;;;;;;;28.23;12.27;;;;;;;24.75;44.44;99768.06;5135023;27;20046;-80
2021/08/29 11:42:38;;;;;;;28.17;12.38;;;;;;;25.08;43.81;99756.38;5134133;27;20043;-78
2021/08/29 11:45:09;;;;;;;21.88;11.23;;;;;;;25.15;44.25;99762.59;5134278;27;20129;-78
2021/08/29 11:47:42;;;;;;;23.15;11.95;;;;;;;25.04;44.30;99767.59;5099472;27;20413;-79
2021/08/29 11:50:14;;;;;;;26.92;10.57;;;;;;;25.36;43.55;99764.22;5133301;27;20046;-77
2021/08/29 11:53:19;;;;;;;24.40;15.05;;;;;;;25.84;42.20;99757.56;5070986;28;20119;-82
2021/08/29 11:55:45;;;;;;;20.45;10.73;;;;;;;26.05;42.13;99758.28;5037354;28;20036;-78